sensor_id;sensor_type;location;lat;lon;timestamp;pressure;altitude;pressure_sealevel;temperature;humidity
75290;BME280;63883;48.996;20.804;2023-08-01T00:00:50;96107.09;;;14.56;100.00
75290;BME280;63883;48.996;20.804;2023-08-01T00:03:27;96106.97;;;14.59;100.00
75290;BME280;63883;48.996;20.804;2023-08-01T00:05:52;96108.31;;;14.49;100.00
75290;BME280;63883;48.996;20.804;2023-08-01T00:08:21;96101.69;;;14.45;100.00
75290;BME280;63883;48.996;20.804;2023-08-01T00:10:46;96107.41;;;14.50;100.00
75290;BME280;63883;48.996;20.804;2023-08-01T00:13:12;96105.75;;;14.66;100.00
75290;BME280;63883;48.996;20.804;2023-08-01T00:15:38;96110.28;;;14.61;100.00
75290;BME280;63883;48.996;20.804;2023-08-01T00:18:04;96114.44;;;14.64;100.00
75290;BME280;63883;48.996;20.804;2023-08-01T00:20:29;96109.16;;;14.67;100.00
75290;BME280;63883;48.996;20.804;2023-08-01T00:22:55;96103.69;;;14.73;100.00
75290;BME280;63883;48.996;20.804;2023-08-01T00:25:21;96093.94;;;14.79;100.00
75290;BME280;63883;48.996;20.804;2023-08-01T00:27:47;96088.66;;;14.82;100.00
75290;BME280;63883;48.996;20.804;2023-08-01T00:30:12;96092.38;;;14.93;100.00
75290;BME280;63883;48.996;20.804;2023-08-01T00:32:38;96079.72;;;14.90;100.00
75290;BME280;63883;48.996;20.804;2023-08-01T00:35:04;96091.47;;;14.94;100.00
75290;BME280;63883;48.996;20.804;2023-08-01T00:37:30;96083.78;;;14.94;100.00
75290;BME280;63883;48.996;20.804;2023-08-01T00:39:56;96085.59;;;14.92;100.00
75290;BME280;63883;48.996;20.804;2023-08-01T00:42:22;96094.72;;;14.97;100.00
75290;BME280;63883;48.996;20.804;2023-08-01T00:44:47;96089.66;;;14.96;100.00
75290;BME280;63883;48.996;20.804;2023-08-01T00:47:15;96095.38;;;15.01;100.00
75290;BME280;63883;48.996;20.804;2023-08-01T00:49:41;96095.56;;;14.98;100.00
75290;BME280;63883;48.996;20.804;2023-08-01T00:52:08;96086.63;;;15.05;100.00
75290;BME280;63883;48.996;20.804;2023-08-01T00:54:34;96080.31;;;14.95;100.00
75290;BME280;63883;48.996;20.804;2023-08-01T00:57:03;96084.97;;;15.04;100.00
75290;BME280;63883;48.996;20.804;2023-08-01T00:59:29;96090.44;;;14.98;100.00
75290;BME280;63883;48.996;20.804;2023-08-01T01:01:55;96094.88;;;14.94;100.00
75290;BME280;63883;48.996;20.804;2023-08-01T01:04:21;96095.78;;;14.93;100.00
75290;BME280;63883;48.996;20.804;2023-08-01T01:07:05;96086.59;;;14.89;100.00
75290;BME280;63883;48.996;20.804;2023-08-01T01:09:31;96085.19;;;14.83;100.00
75290;BME280;63883;48.996;20.804;2023-08-01T01:11:58;96079.44;;;14.78;100.00
75290;BME280;63883;48.996;20.804;2023-08-01T01:14:26;96080.19;;;14.80;100.00
75290;BME280;63883;48.996;20.804;2023-08-01T01:16:52;96084.44;;;14.81;100.00
75290;BME280;63883;48.996;20.804;2023-08-01T01:19:17;96079.13;;;14.84;100.00
75290;BME280;63883;48.996;20.804;2023-08-01T01:21:44;96076.13;;;14.76;100.00
75290;BME280;63883;48.996;20.804;2023-08-01T01:24:11;96061.72;;;14.74;100.00
75290;BME280;63883;48.996;20.804;2023-08-01T01:26:41;96063.31;;;14.76;100.00
75290;BME280;63883;48.996;20.804;2023-08-01T01:29:07;96067.59;;;14.76;100.00
75290;BME280;63883;48.996;20.804;2023-08-01T01:31:34;96072.50;;;14.80;100.00
75290;BME280;63883;48.996;20.804;2023-08-01T01:34:00;96065.94;;;14.75;100.00
75290;BME280;63883;48.996;20.804;2023-08-01T01:36:26;96066.91;;;14.72;100.00
75290;BME280;63883;48.996;20.804;2023-08-01T01:38:52;96062.69;;;14.71;100.00
75290;BME280;63883;48.996;20.804;2023-08-01T01:41:17;96070.69;;;14.82;100.00
75290;BME280;63883;48.996;20.804;2023-08-01T01:43:43;96062.47;;;14.76;100.00
75290;BME280;63883;48.996;20.804;2023-08-01T01:46:10;96058.81;;;14.80;100.00
75290;BME280;63883;48.996;20.804;2023-08-01T01:48:35;96066.53;;;14.80;100.00
75290;BME280;63883;48.996;20.804;2023-08-01T01:51:01;96049.31;;;14.82;100.00
75290;BME280;63883;48.996;20.804;2023-08-01T01:53:27;96051.63;;;14.87;100.00
75290;BME280;63883;48.996;20.804;2023-08-01T01:55:53;96041.34;;;14.87;100.00
75290;BME280;63883;48.996;20.804;2023-08-01T01:58:18;96036.13;;;14.88;100.00
75290;BME280;63883;48.996;20.804;2023-08-01T02:00:44;96041.03;;;14.93;100.00
75290;BME280;63883;48.996;20.804;2023-08-01T02:03:10;96045.50;;;14.89;100.00
75290;BME280;63883;48.996;20.804;2023-08-01T02:05:36;96041.69;;;14.80;100.00
75290;BME280;63883;48.996;20.804;2023-08-01T02:08:02;96038.22;;;14.81;100.00
75290;BME280;63883;48.996;20.804;2023-08-01T02:10:30;96034.38;;;14.73;100.00
75290;BME280;63883;48.996;20.804;2023-08-01T02:12:56;96031.88;;;14.71;100.00
75290;BME280;63883;48.996;20.804;2023-08-01T02:15:21;96039.84;;;14.67;100.00
75290;BME280;63883;48.996;20.804;2023-08-01T02:17:47;96043.03;;;14.55;100.00
75290;BME280;63883;48.996;20.804;2023-08-01T02:20:13;96042.38;;;14.51;100.00
75290;BME280;63883;48.996;20.804;2023-08-01T02:22:38;96042.81;;;14.59;100.00
75290;BME280;63883;48.996;20.804;2023-08-01T02:25:05;96030.88;;;14.58;100.00
75290;BME280;63883;48.996;20.804;2023-08-01T02:27:30;96016.78;;;14.50;100.00
75290;BME280;63883;48.996;20.804;2023-08-01T02:29:56;96025.22;;;14.52;100.00
75290;BME280;63883;48.996;20.804;2023-08-01T02:32:22;96019.25;;;14.51;100.00
75290;BME280;63883;48.996;20.804;2023-08-01T02:34:47;96018.91;;;14.41;100.00
75290;BME280;63883;48.996;20.804;2023-08-01T02:37:13;96024.88;;;14.42;100.00
75290;BME280;63883;48.996;20.804;2023-08-01T02:39:39;96019.72;;;14.42;100.00
75290;BME280;63883;48.996;20.804;2023-08-01T02:42:04;96025.63;;;14.44;100.00
75290;BME280;63883;48.996;20.804;2023-08-01T02:44:30;96026.19;;;14.49;100.00
75290;BME280;63883;48.996;20.804;2023-08-01T02:46:56;96010.47;;;14.55;100.00
75290;BME280;63883;48.996;20.804;2023-08-01T02:49:22;96011.41;;;14.54;100.00
75290;BME280;63883;48.996;20.804;2023-08-01T02:51:47;96003.88;;;14.51;100.00
75290;BME280;63883;48.996;20.804;2023-08-01T02:54:13;96009.91;;;14.50;100.00
75290;BME280;63883;48.996;20.804;2023-08-01T02:56:38;96012.31;;;14.53;100.00
75290;BME280;63883;48.996;20.804;2023-08-01T02:59:08;96002.06;;;14.53;100.00
75290;BME280;63883;48.996;20.804;2023-08-01T03:01:38;95997.81;;;14.52;100.00
75290;BME280;63883;48.996;20.804;2023-08-01T03:04:05;95994.78;;;14.61;100.00
75290;BME280;63883;48.996;20.804;2023-08-01T03:06:32;95995.38;;;14.66;100.00
75290;BME280;63883;48.996;20.804;2023-08-01T03:08:59;95992.81;;;14.66;100.00
75290;BME280;63883;48.996;20.804;2023-08-01T03:11:24;95992.81;;;14.66;100.00
75290;BME280;63883;48.996;20.804;2023-08-01T03:13:50;95988.66;;;14.79;100.00
75290;BME280;63883;48.996;20.804;2023-08-01T03:16:17;95991.31;;;14.78;100.00
75290;BME280;63883;48.996;20.804;2023-08-01T03:18:43;95985.94;;;14.67;100.00
75290;BME280;63883;48.996;20.804;2023-08-01T03:21:09;95990.81;;;14.71;100.00
75290;BME280;63883;48.996;20.804;2023-08-01T03:23:35;95978.81;;;14.72;100.00
75290;BME280;63883;48.996;20.804;2023-08-01T03:26:00;95974.84;;;14.66;100.00
75290;BME280;63883;48.996;20.804;2023-08-01T03:28:26;95966.63;;;14.60;100.00
75290;BME280;63883;48.996;20.804;2023-08-01T03:30:52;95959.41;;;14.51;100.00
75290;BME280;63883;48.996;20.804;2023-08-01T03:33:20;95964.81;;;14.62;100.00
75290;BME280;63883;48.996;20.804;2023-08-01T03:35:45;95972.09;;;14.54;100.00
75290;BME280;63883;48.996;20.804;2023-08-01T03:38:11;95969.94;;;14.62;100.00
75290;BME280;63883;48.996;20.804;2023-08-01T03:40:36;95971.34;;;14.67;100.00
75290;BME280;63883;48.996;20.804;2023-08-01T03:43:02;95959.34;;;14.68;100.00
75290;BME280;63883;48.996;20.804;2023-08-01T03:45:28;95958.53;;;14.67;100.00
75290;BME280;63883;48.996;20.804;2023-08-01T03:47:54;95962.50;;;14.73;100.00
75290;BME280;63883;48.996;20.804;2023-08-01T03:50:20;95963.97;;;14.77;100.00
75290;BME280;63883;48.996;20.804;2023-08-01T03:52:45;95956.03;;;14.81;100.00
75290;BME280;63883;48.996;20.804;2023-08-01T03:55:11;95956.81;;;14.83;100.00
75290;BME280;63883;48.996;20.804;2023-08-01T03:57:37;95949.09;;;14.83;100.00
75290;BME280;63883;48.996;20.804;2023-08-01T04:00:06;95951.81;;;14.80;100.00
75290;BME280;63883;48.996;20.804;2023-08-01T04:02:32;95947.91;;;14.73;100.00
75290;BME280;63883;48.996;20.804;2023-08-01T04:04:57;95955.13;;;14.67;100.00
75290;BME280;63883;48.996;20.804;2023-08-01T04:07:23;95961.50;;;14.75;100.00
75290;BME280;63883;48.996;20.804;2023-08-01T04:09:49;95967.28;;;14.79;100.00
75290;BME280;63883;48.996;20.804;2023-08-01T04:12:15;95964.81;;;14.77;100.00
75290;BME280;63883;48.996;20.804;2023-08-01T04:14:41;95958.84;;;14.77;100.00
75290;BME280;63883;48.996;20.804;2023-08-01T04:17:07;95963.97;;;14.77;100.00
75290;BME280;63883;48.996;20.804;2023-08-01T04:19:33;95965.13;;;14.71;100.00
75290;BME280;63883;48.996;20.804;2023-08-01T04:21:59;95962.50;;;14.73;100.00
75290;BME280;63883;48.996;20.804;2023-08-01T04:24:24;95969.63;;;14.83;100.00
75290;BME280;63883;48.996;20.804;2023-08-01T04:26:51;95964.09;;;14.75;100.00
75290;BME280;63883;48.996;20.804;2023-08-01T04:29:17;95968.31;;;14.76;100.00
75290;BME280;63883;48.996;20.804;2023-08-01T04:31:43;95969.22;;;14.75;100.00
75290;BME280;63883;48.996;20.804;2023-08-01T04:34:09;95977.34;;;14.83;100.00
75290;BME280;63883;48.996;20.804;2023-08-01T04:36:35;95959.66;;;14.93;100.00
75290;BME280;63883;48.996;20.804;2023-08-01T04:39:00;95964.72;;;14.95;100.00
75290;BME280;63883;48.996;20.804;2023-08-01T04:41:26;95964.81;;;14.93;100.00
75290;BME280;63883;48.996;20.804;2023-08-01T04:43:51;95954.94;;;15.01;100.00
75290;BME280;63883;48.996;20.804;2023-08-01T04:46:17;95959.25;;;15.16;100.00
75290;BME280;63883;48.996;20.804;2023-08-01T04:48:43;95965.00;;;15.36;100.00
75290;BME280;63883;48.996;20.804;2023-08-01T04:51:08;95956.31;;;15.38;100.00
75290;BME280;63883;48.996;20.804;2023-08-01T04:53:34;95950.34;;;15.38;100.00
75290;BME280;63883;48.996;20.804;2023-08-01T04:56:00;95946.94;;;15.37;100.00
75290;BME280;63883;48.996;20.804;2023-08-01T04:58:25;95948.25;;;15.44;100.00
75290;BME280;63883;48.996;20.804;2023-08-01T05:00:51;95948.06;;;15.02;100.00
75290;BME280;63883;48.996;20.804;2023-08-01T05:03:17;95944.69;;;15.01;100.00
75290;BME280;63883;48.996;20.804;2023-08-01T05:05:43;95946.56;;;15.13;100.00
75290;BME280;63883;48.996;20.804;2023-08-01T05:08:09;95947.28;;;15.31;100.00
75290;BME280;63883;48.996;20.804;2023-08-01T05:10:34;95952.84;;;15.39;100.00
75290;BME280;63883;48.996;20.804;2023-08-01T05:13:00;95946.59;;;15.59;100.00
75290;BME280;63883;48.996;20.804;2023-08-01T05:15:26;95940.81;;;15.55;100.00
75290;BME280;63883;48.996;20.804;2023-08-01T05:17:52;95936.41;;;15.72;100.00
75290;BME280;63883;48.996;20.804;2023-08-01T05:20:18;95925.97;;;15.75;100.00
75290;BME280;63883;48.996;20.804;2023-08-01T05:22:43;95923.59;;;15.86;100.00
75290;BME280;63883;48.996;20.804;2023-08-01T05:25:09;95923.94;;;15.80;100.00
75290;BME280;63883;48.996;20.804;2023-08-01T05:27:35;95921.94;;;15.85;100.00
75290;BME280;63883;48.996;20.804;2023-08-01T05:30:00;95923.97;;;16.08;100.00
75290;BME280;63883;48.996;20.804;2023-08-01T05:32:26;95933.44;;;16.36;100.00
75290;BME280;63883;48.996;20.804;2023-08-01T05:34:52;95927.28;;;16.67;100.00
75290;BME280;63883;48.996;20.804;2023-08-01T05:37:17;95922.66;;;16.72;100.00
75290;BME280;63883;48.996;20.804;2023-08-01T05:39:43;95927.81;;;16.58;100.00
75290;BME280;63883;48.996;20.804;2023-08-01T05:42:09;95925.06;;;16.47;100.00
75290;BME280;63883;48.996;20.804;2023-08-01T05:44:35;95922.13;;;16.38;100.00
75290;BME280;63883;48.996;20.804;2023-08-01T05:47:00;95925.81;;;16.49;100.00
75290;BME280;63883;48.996;20.804;2023-08-01T05:49:26;95919.56;;;16.67;100.00
75290;BME280;63883;48.996;20.804;2023-08-01T05:51:53;95914.81;;;16.88;100.00
75290;BME280;63883;48.996;20.804;2023-08-01T05:54:19;95918.22;;;17.15;100.00
75290;BME280;63883;48.996;20.804;2023-08-01T05:56:45;95921.47;;;17.31;99.00
75290;BME280;63883;48.996;20.804;2023-08-01T05:59:11;95922.25;;;17.19;98.19
75290;BME280;63883;48.996;20.804;2023-08-01T06:01:36;95929.34;;;17.15;98.88
75290;BME280;63883;48.996;20.804;2023-08-01T06:04:02;95925.84;;;17.16;97.35
75290;BME280;63883;48.996;20.804;2023-08-01T06:06:28;95936.75;;;17.34;96.55
75290;BME280;63883;48.996;20.804;2023-08-01T06:08:54;95928.47;;;17.56;94.83
75290;BME280;63883;48.996;20.804;2023-08-01T06:11:20;95927.75;;;17.67;94.30
75290;BME280;63883;48.996;20.804;2023-08-01T06:13:46;95932.69;;;17.57;94.33
75290;BME280;63883;48.996;20.804;2023-08-01T06:16:11;95935.44;;;17.14;97.12
75290;BME280;63883;48.996;20.804;2023-08-01T06:18:37;95940.56;;;17.29;97.02
75290;BME280;63883;48.996;20.804;2023-08-01T06:21:02;95934.50;;;17.42;95.28
75290;BME280;63883;48.996;20.804;2023-08-01T06:23:28;95934.31;;;17.58;95.83
75290;BME280;63883;48.996;20.804;2023-08-01T06:25:54;95935.66;;;17.90;94.88
75290;BME280;63883;48.996;20.804;2023-08-01T06:28:20;95929.88;;;18.25;92.79
75290;BME280;63883;48.996;20.804;2023-08-01T06:30:45;95925.06;;;18.69;88.20
75290;BME280;63883;48.996;20.804;2023-08-01T06:33:11;95920.34;;;18.38;91.24
75290;BME280;63883;48.996;20.804;2023-08-01T06:35:37;95923.56;;;18.16;92.72
75290;BME280;63883;48.996;20.804;2023-08-01T06:38:03;95915.81;;;18.04;92.96
75290;BME280;63883;48.996;20.804;2023-08-01T06:40:28;95914.16;;;18.03;92.93
75290;BME280;63883;48.996;20.804;2023-08-01T06:42:54;95917.06;;;18.11;91.75
75290;BME280;63883;48.996;20.804;2023-08-01T06:45:19;95918.00;;;17.84;94.01
75290;BME280;63883;48.996;20.804;2023-08-01T06:47:45;95909.72;;;17.79;94.30
75290;BME280;63883;48.996;20.804;2023-08-01T06:50:11;95911.91;;;17.85;94.33
75290;BME280;63883;48.996;20.804;2023-08-01T06:52:37;95911.41;;;17.93;94.78
75290;BME280;63883;48.996;20.804;2023-08-01T06:55:02;95904.03;;;18.25;91.89
75290;BME280;63883;48.996;20.804;2023-08-01T06:57:28;95909.22;;;18.25;91.99
75290;BME280;63883;48.996;20.804;2023-08-01T06:59:54;95909.72;;;18.30;91.77
75290;BME280;63883;48.996;20.804;2023-08-01T07:02:20;95903.53;;;18.32;92.04
75290;BME280;63883;48.996;20.804;2023-08-01T07:04:45;95891.88;;;18.27;92.54
75290;BME280;63883;48.996;20.804;2023-08-01T07:07:11;95891.47;;;17.95;94.81
75290;BME280;63883;48.996;20.804;2023-08-01T07:09:37;95896.72;;;18.19;94.06
75290;BME280;63883;48.996;20.804;2023-08-01T07:12:03;95890.03;;;17.78;95.76
75290;BME280;63883;48.996;20.804;2023-08-01T07:14:28;95885.47;;;17.94;94.52
75290;BME280;63883;48.996;20.804;2023-08-01T07:16:54;95884.13;;;18.27;96.62
75290;BME280;63883;48.996;20.804;2023-08-01T07:19:20;95878.28;;;18.61;93.92
75290;BME280;63883;48.996;20.804;2023-08-01T07:21:46;95886.38;;;18.81;93.12
75290;BME280;63883;48.996;20.804;2023-08-01T07:24:14;95882.97;;;19.04;92.03
75290;BME280;63883;48.996;20.804;2023-08-01T07:26:41;95886.56;;;19.14;89.93
75290;BME280;63883;48.996;20.804;2023-08-01T07:29:06;95889.38;;;19.46;88.04
75290;BME280;63883;48.996;20.804;2023-08-01T07:31:34;95896.03;;;19.61;87.78
75290;BME280;63883;48.996;20.804;2023-08-01T07:34:00;95891.94;;;19.70;85.82
75290;BME280;63883;48.996;20.804;2023-08-01T07:36:26;95887.53;;;19.94;87.09
75290;BME280;63883;48.996;20.804;2023-08-01T07:38:53;95884.69;;;19.97;87.16
75290;BME280;63883;48.996;20.804;2023-08-01T07:41:18;95885.78;;;20.17;86.47
75290;BME280;63883;48.996;20.804;2023-08-01T07:43:44;95886.19;;;20.46;83.62
75290;BME280;63883;48.996;20.804;2023-08-01T07:46:10;95883.19;;;20.73;81.15
75290;BME280;63883;48.996;20.804;2023-08-01T07:48:37;95877.97;;;20.84;81.99
75290;BME280;63883;48.996;20.804;2023-08-01T07:51:03;95878.94;;;21.15;80.55
75290;BME280;63883;48.996;20.804;2023-08-01T07:53:31;95872.16;;;21.34;76.63
75290;BME280;63883;48.996;20.804;2023-08-01T07:55:56;95868.31;;;21.50;74.59
75290;BME280;63883;48.996;20.804;2023-08-01T07:58:22;95869.03;;;21.72;70.33
75290;BME280;63883;48.996;20.804;2023-08-01T08:00:48;95879.84;;;21.98;64.13
75290;BME280;63883;48.996;20.804;2023-08-01T08:03:14;95866.06;;;22.28;63.85
75290;BME280;63883;48.996;20.804;2023-08-01T08:05:40;95867.69;;;22.29;59.48
75290;BME280;63883;48.996;20.804;2023-08-01T08:08:06;95860.84;;;22.28;59.18
75290;BME280;63883;48.996;20.804;2023-08-01T08:10:32;95858.19;;;22.49;58.57
75290;BME280;63883;48.996;20.804;2023-08-01T08:12:57;95864.06;;;22.81;58.10
75290;BME280;63883;48.996;20.804;2023-08-01T08:15:23;95867.69;;;23.19;54.55
75290;BME280;63883;48.996;20.804;2023-08-01T08:17:49;95853.00;;;23.37;55.89
75290;BME280;63883;48.996;20.804;2023-08-01T08:20:16;95861.63;;;23.57;55.06
75290;BME280;63883;48.996;20.804;2023-08-01T08:22:41;95856.44;;;23.38;54.20
75290;BME280;63883;48.996;20.804;2023-08-01T08:25:07;95859.97;;;23.75;56.72
75290;BME280;63883;48.996;20.804;2023-08-01T08:27:33;95858.84;;;23.97;56.01
75290;BME280;63883;48.996;20.804;2023-08-01T08:29:59;95852.69;;;23.79;55.01
75290;BME280;63883;48.996;20.804;2023-08-01T08:32:25;95861.44;;;23.97;53.06
75290;BME280;63883;48.996;20.804;2023-08-01T08:34:50;95849.00;;;23.81;52.42
75290;BME280;63883;48.996;20.804;2023-08-01T08:37:16;95846.22;;;23.92;52.60
75290;BME280;63883;48.996;20.804;2023-08-01T08:39:42;95857.25;;;24.13;51.75
75290;BME280;63883;48.996;20.804;2023-08-01T08:42:10;95850.00;;;24.27;53.08
75290;BME280;63883;48.996;20.804;2023-08-01T08:44:41;95840.53;;;24.53;51.27
75290;BME280;63883;48.996;20.804;2023-08-01T08:47:08;95836.75;;;24.65;49.42
75290;BME280;63883;48.996;20.804;2023-08-01T08:49:36;95834.38;;;24.72;49.76
75290;BME280;63883;48.996;20.804;2023-08-01T08:52:02;95826.25;;;24.75;51.93
75290;BME280;63883;48.996;20.804;2023-08-01T08:54:30;95834.13;;;24.93;48.52
75290;BME280;63883;48.996;20.804;2023-08-01T08:56:56;95835.91;;;24.47;50.30
75290;BME280;63883;48.996;20.804;2023-08-01T08:59:25;95830.22;;;23.78;50.41
75290;BME280;63883;48.996;20.804;2023-08-01T09:01:50;95838.63;;;23.62;51.85
75290;BME280;63883;48.996;20.804;2023-08-01T09:04:16;95825.59;;;23.62;53.60
75290;BME280;63883;48.996;20.804;2023-08-01T09:06:46;95823.84;;;23.53;53.15
75290;BME280;63883;48.996;20.804;2023-08-01T09:09:14;95837.53;;;23.55;53.88
75290;BME280;63883;48.996;20.804;2023-08-01T09:11:49;95835.19;;;23.61;53.12
75290;BME280;63883;48.996;20.804;2023-08-01T09:14:16;95839.31;;;23.54;53.16
75290;BME280;63883;48.996;20.804;2023-08-01T09:16:43;95829.56;;;23.66;53.51
75290;BME280;63883;48.996;20.804;2023-08-01T09:19:09;95832.94;;;23.86;54.02
75290;BME280;63883;48.996;20.804;2023-08-01T09:21:36;95832.53;;;23.81;54.50
75290;BME280;63883;48.996;20.804;2023-08-01T09:24:12;95833.50;;;23.89;54.04
75290;BME280;63883;48.996;20.804;2023-08-01T09:26:39;95830.66;;;23.73;54.94
75290;BME280;63883;48.996;20.804;2023-08-01T09:29:06;95828.06;;;23.63;55.19
75290;BME280;63883;48.996;20.804;2023-08-01T09:31:39;95833.56;;;23.51;55.00
75290;BME280;63883;48.996;20.804;2023-08-01T09:34:17;95835.03;;;23.44;55.02
75290;BME280;63883;48.996;20.804;2023-08-01T09:36:43;95825.44;;;23.34;54.72
75290;BME280;63883;48.996;20.804;2023-08-01T09:39:18;95827.53;;;23.21;55.83
75290;BME280;63883;48.996;20.804;2023-08-01T09:41:45;95821.06;;;23.35;56.24
75290;BME280;63883;48.996;20.804;2023-08-01T09:44:11;95821.22;;;23.53;56.17
75290;BME280;63883;48.996;20.804;2023-08-01T09:46:38;95816.69;;;23.64;54.75
75290;BME280;63883;48.996;20.804;2023-08-01T09:49:10;95811.47;;;23.64;54.34
75290;BME280;63883;48.996;20.804;2023-08-01T09:51:49;95808.84;;;23.74;55.25
75290;BME280;63883;48.996;20.804;2023-08-01T09:54:16;95800.38;;;23.62;55.63
75290;BME280;63883;48.996;20.804;2023-08-01T09:56:46;95800.66;;;23.69;55.39
75290;BME280;63883;48.996;20.804;2023-08-01T09:59:18;95789.66;;;23.65;55.55
75290;BME280;63883;48.996;20.804;2023-08-01T10:01:44;95787.31;;;23.82;56.55
75290;BME280;63883;48.996;20.804;2023-08-01T10:04:11;95785.22;;;23.85;55.78
75290;BME280;63883;48.996;20.804;2023-08-01T10:06:38;95786.47;;;23.91;55.63
75290;BME280;63883;48.996;20.804;2023-08-01T10:09:10;95789.78;;;23.83;53.90
75290;BME280;63883;48.996;20.804;2023-08-01T10:11:37;95778.53;;;23.83;55.81
75290;BME280;63883;48.996;20.804;2023-08-01T10:14:04;95779.34;;;23.83;56.35
75290;BME280;63883;48.996;20.804;2023-08-01T10:16:30;95781.75;;;23.94;55.84
75290;BME280;63883;48.996;20.804;2023-08-01T10:18:56;95778.69;;;24.08;55.69
75290;BME280;63883;48.996;20.804;2023-08-01T10:21:23;95779.47;;;24.19;55.20
75290;BME280;63883;48.996;20.804;2023-08-01T10:23:51;95768.97;;;24.01;52.85
75290;BME280;63883;48.996;20.804;2023-08-01T10:26:17;95761.41;;;24.07;53.09
75290;BME280;63883;48.996;20.804;2023-08-01T10:28:50;95770.00;;;24.18;53.19
75290;BME280;63883;48.996;20.804;2023-08-01T10:31:17;95773.72;;;24.15;53.62
75290;BME280;63883;48.996;20.804;2023-08-01T10:33:47;95760.78;;;24.33;51.24
75290;BME280;63883;48.996;20.804;2023-08-01T10:36:23;95754.75;;;24.50;49.61
75290;BME280;63883;48.996;20.804;2023-08-01T10:38:51;95747.53;;;24.62;48.91
75290;BME280;63883;48.996;20.804;2023-08-01T10:41:42;95743.44;;;24.59;51.10
75290;BME280;63883;48.996;20.804;2023-08-01T10:44:15;95739.06;;;24.77;49.44
75290;BME280;63883;48.996;20.804;2023-08-01T10:49:17;95736.94;;;25.16;50.85
75290;BME280;63883;48.996;20.804;2023-08-01T10:51:43;95736.94;;;25.86;50.16
75290;BME280;63883;48.996;20.804;2023-08-01T10:54:23;95734.59;;;26.83;45.69
75290;BME280;63883;48.996;20.804;2023-08-01T10:56:53;95736.06;;;26.69;44.42
75290;BME280;63883;48.996;20.804;2023-08-01T10:59:20;95745.03;;;26.42;43.27
75290;BME280;63883;48.996;20.804;2023-08-01T11:01:52;95732.72;;;26.27;46.47
75290;BME280;63883;48.996;20.804;2023-08-01T11:04:22;95733.69;;;25.40;48.83
75290;BME280;63883;48.996;20.804;2023-08-01T11:06:49;95722.38;;;25.06;48.72
75290;BME280;63883;48.996;20.804;2023-08-01T11:09:21;95736.75;;;24.74;49.58
75290;BME280;63883;48.996;20.804;2023-08-01T11:11:48;95737.78;;;25.17;49.69
75290;BME280;63883;48.996;20.804;2023-08-01T11:14:15;95741.53;;;25.40;50.19
75290;BME280;63883;48.996;20.804;2023-08-01T11:16:42;95727.34;;;26.44;44.97
75290;BME280;63883;48.996;20.804;2023-08-01T11:21:46;95716.16;;;27.09;41.62
75290;BME280;63883;48.996;20.804;2023-08-01T11:24:12;95724.50;;;26.96;42.01
75290;BME280;63883;48.996;20.804;2023-08-01T11:26:44;95717.59;;;27.36;42.08
75290;BME280;63883;48.996;20.804;2023-08-01T11:29:11;95710.56;;;27.28;42.20
75290;BME280;63883;48.996;20.804;2023-08-01T11:31:37;95707.91;;;27.61;43.35
75290;BME280;63883;48.996;20.804;2023-08-01T11:34:04;95701.16;;;28.13;41.54
75290;BME280;63883;48.996;20.804;2023-08-01T11:36:30;95702.47;;;28.17;43.43
75290;BME280;63883;48.996;20.804;2023-08-01T11:39:00;95699.31;;;29.88;38.09
75290;BME280;63883;48.996;20.804;2023-08-01T11:41:26;95697.53;;;30.54;38.08
75290;BME280;63883;48.996;20.804;2023-08-01T11:43:53;95697.88;;;31.36;35.01
75290;BME280;63883;48.996;20.804;2023-08-01T11:46:21;95694.34;;;30.08;38.04
75290;BME280;63883;48.996;20.804;2023-08-01T11:48:47;95705.28;;;29.15;40.08
75290;BME280;63883;48.996;20.804;2023-08-01T11:51:13;95702.19;;;27.49;42.74
75290;BME280;63883;48.996;20.804;2023-08-01T11:53:39;95695.19;;;26.76;43.63
75290;BME280;63883;48.996;20.804;2023-08-01T11:56:07;95693.31;;;26.28;44.67
75290;BME280;63883;48.996;20.804;2023-08-01T11:58:41;95692.13;;;27.85;43.35
75290;BME280;63883;48.996;20.804;2023-08-01T12:01:11;95689.53;;;27.77;41.56
75290;BME280;63883;48.996;20.804;2023-08-01T12:03:53;95696.94;;;27.73;41.05
75290;BME280;63883;48.996;20.804;2023-08-01T12:06:21;95696.31;;;27.39;42.35
75290;BME280;63883;48.996;20.804;2023-08-01T12:08:50;95686.66;;;26.74;46.33
75290;BME280;63883;48.996;20.804;2023-08-01T12:11:25;95685.81;;;26.41;46.95
75290;BME280;63883;48.996;20.804;2023-08-01T12:14:04;95683.22;;;25.91;47.98
75290;BME280;63883;48.996;20.804;2023-08-01T12:16:31;95679.97;;;25.97;47.02
75290;BME280;63883;48.996;20.804;2023-08-01T12:18:57;95671.97;;;26.90;45.32
75290;BME280;63883;48.996;20.804;2023-08-01T12:21:23;95660.13;;;27.42;43.83
75290;BME280;63883;48.996;20.804;2023-08-01T12:23:49;95662.41;;;28.54;40.87
75290;BME280;63883;48.996;20.804;2023-08-01T12:26:14;95637.72;;;30.33;37.98
75290;BME280;63883;48.996;20.804;2023-08-01T12:28:40;95634.13;;;29.25;37.85
75290;BME280;63883;48.996;20.804;2023-08-01T12:31:05;95628.34;;;27.92;42.32
75290;BME280;63883;48.996;20.804;2023-08-01T12:33:32;95633.13;;;27.26;44.34
75290;BME280;63883;48.996;20.804;2023-08-01T12:35:59;95644.59;;;27.25;44.76
75290;BME280;63883;48.996;20.804;2023-08-01T12:38:26;95642.34;;;26.57;44.87
75290;BME280;63883;48.996;20.804;2023-08-01T12:40:51;95635.91;;;26.19;45.96
75290;BME280;63883;48.996;20.804;2023-08-01T12:43:17;95646.25;;;25.78;47.83
75290;BME280;63883;48.996;20.804;2023-08-01T12:45:43;95639.91;;;25.89;47.69
75290;BME280;63883;48.996;20.804;2023-08-01T12:48:09;95628.50;;;25.98;47.15